sensor_id;sensor_type;location;lat;lon;timestamp;P1;durP1;ratioP1;P2;durP2;ratioP2
16354;SDS011;8287;51.644;8.494;2022-08-01T00:00:29;9.93;;;5.78;;
16354;SDS011;8287;51.644;8.494;2022-08-01T00:02:58;8.15;;;5.28;;
16354;SDS011;8287;51.644;8.494;2022-08-01T00:05:24;5.45;;;4.35;;
16354;SDS011;8287;51.644;8.494;2022-08-01T00:07:51;9.15;;;5.07;;
16354;SDS011;8287;51.644;8.494;2022-08-01T00:10:18;8.68;;;5.65;;
16354;SDS011;8287;51.644;8.494;2022-08-01T00:12:45;6.55;;;5.18;;
16354;SDS011;8287;51.644;8.494;2022-08-01T00:15:13;9.35;;;6.13;;
16354;SDS011;8287;51.644;8.494;2022-08-01T00:17:42;12.27;;;6.40;;
16354;SDS011;8287;51.644;8.494;2022-08-01T00:20:12;10.30;;;6.10;;
16354;SDS011;8287;51.644;8.494;2022-08-01T00:22:40;10.68;;;6.38;;
16354;SDS011;8287;51.644;8.494;2022-08-01T00:25:07;8.65;;;6.13;;
16354;SDS011;8287;51.644;8.494;2022-08-01T00:27:34;8.93;;;6.28;;
16354;SDS011;8287;51.644;8.494;2022-08-01T00:30:00;5.90;;;5.28;;
16354;SDS011;8287;51.644;8.494;2022-08-01T00:32:27;7.75;;;5.90;;
16354;SDS011;8287;51.644;8.494;2022-08-01T00:34:56;8.43;;;6.43;;
16354;SDS011;8287;51.644;8.494;2022-08-01T00:37:24;6.20;;;5.38;;
16354;SDS011;8287;51.644;8.494;2022-08-01T00:39:50;9.88;;;6.60;;
16354;SDS011;8287;51.644;8.494;2022-08-01T00:42:17;7.78;;;5.50;;
16354;SDS011;8287;51.644;8.494;2022-08-01T00:44:44;7.10;;;6.13;;
16354;SDS011;8287;51.644;8.494;2022-08-01T00:47:10;8.55;;;6.85;;
16354;SDS011;8287;51.644;8.494;2022-08-01T00:49:37;11.38;;;6.95;;
16354;SDS011;8287;51.644;8.494;2022-08-01T00:52:04;7.05;;;5.43;;
16354;SDS011;8287;51.644;8.494;2022-08-01T00:54:33;7.55;;;5.63;;
16354;SDS011;8287;51.644;8.494;2022-08-01T00:57:00;6.95;;;5.03;;
16354;SDS011;8287;51.644;8.494;2022-08-01T00:59:27;9.88;;;6.47;;
16354;SDS011;8287;51.644;8.494;2022-08-01T01:01:54;10.90;;;6.65;;
16354;SDS011;8287;51.644;8.494;2022-08-01T01:04:20;5.82;;;5.22;;
16354;SDS011;8287;51.644;8.494;2022-08-01T01:06:49;12.10;;;6.28;;
16354;SDS011;8287;51.644;8.494;2022-08-01T01:09:25;6.55;;;5.85;;
16354;SDS011;8287;51.644;8.494;2022-08-01T01:12:04;6.53;;;5.85;;
16354;SDS011;8287;51.644;8.494;2022-08-01T01:14:38;8.15;;;6.85;;
16354;SDS011;8287;51.644;8.494;2022-08-01T01:17:19;9.95;;;6.07;;
16354;SDS011;8287;51.644;8.494;2022-08-01T01:19:54;11.93;;;7.15;;
16354;SDS011;8287;51.644;8.494;2022-08-01T01:22:40;7.55;;;6.00;;
16354;SDS011;8287;51.644;8.494;2022-08-01T01:25:39;9.98;;;7.68;;
16354;SDS011;8287;51.644;8.494;2022-08-01T01:28:13;7.97;;;6.65;;
16354;SDS011;8287;51.644;8.494;2022-08-01T01:30:49;10.90;;;7.30;;
16354;SDS011;8287;51.644;8.494;2022-08-01T01:33:17;10.75;;;7.32;;
16354;SDS011;8287;51.644;8.494;2022-08-01T01:35:47;11.00;;;7.57;;
16354;SDS011;8287;51.644;8.494;2022-08-01T01:38:18;9.73;;;7.47;;
16354;SDS011;8287;51.644;8.494;2022-08-01T01:40:48;8.93;;;8.02;;
16354;SDS011;8287;51.644;8.494;2022-08-01T01:43:16;11.63;;;8.48;;
16354;SDS011;8287;51.644;8.494;2022-08-01T01:45:45;13.18;;;8.15;;
16354;SDS011;8287;51.644;8.494;2022-08-01T01:48:15;13.45;;;7.55;;
16354;SDS011;8287;51.644;8.494;2022-08-01T01:50:44;13.70;;;7.57;;
16354;SDS011;8287;51.644;8.494;2022-08-01T01:53:12;10.70;;;8.40;;
16354;SDS011;8287;51.644;8.494;2022-08-01T01:55:41;15.85;;;8.90;;
16354;SDS011;8287;51.644;8.494;2022-08-01T01:58:11;14.48;;;8.00;;
16354;SDS011;8287;51.644;8.494;2022-08-01T02:00:39;13.40;;;8.07;;
16354;SDS011;8287;51.644;8.494;2022-08-01T02:03:07;9.82;;;7.57;;
16354;SDS011;8287;51.644;8.494;2022-08-01T02:05:38;11.98;;;7.90;;
16354;SDS011;8287;51.644;8.494;2022-08-01T02:08:06;10.23;;;7.88;;
16354;SDS011;8287;51.644;8.494;2022-08-01T02:10:35;12.23;;;7.65;;
16354;SDS011;8287;51.644;8.494;2022-08-01T02:13:04;11.68;;;7.68;;
16354;SDS011;8287;51.644;8.494;2022-08-01T02:15:33;8.57;;;6.97;;
16354;SDS011;8287;51.644;8.494;2022-08-01T02:18:03;10.15;;;8.07;;
16354;SDS011;8287;51.644;8.494;2022-08-01T02:20:34;9.25;;;7.25;;
16354;SDS011;8287;51.644;8.494;2022-08-01T02:23:06;11.48;;;7.60;;
16354;SDS011;8287;51.644;8.494;2022-08-01T02:25:36;10.18;;;6.32;;
16354;SDS011;8287;51.644;8.494;2022-08-01T02:28:06;7.30;;;5.63;;
16354;SDS011;8287;51.644;8.494;2022-08-01T02:30:35;11.27;;;5.95;;
16354;SDS011;8287;51.644;8.494;2022-08-01T02:33:04;5.82;;;5.22;;
16354;SDS011;8287;51.644;8.494;2022-08-01T02:35:35;5.80;;;3.55;;
16354;SDS011;8287;51.644;8.494;2022-08-01T02:38:06;7.00;;;4.30;;
16354;SDS011;8287;51.644;8.494;2022-08-01T02:40:36;6.38;;;3.80;;
16354;SDS011;8287;51.644;8.494;2022-08-01T02:43:06;5.90;;;3.60;;
16354;SDS011;8287;51.644;8.494;2022-08-01T02:45:35;4.43;;;3.53;;
16354;SDS011;8287;51.644;8.494;2022-08-01T02:48:06;3.92;;;3.28;;
16354;SDS011;8287;51.644;8.494;2022-08-01T02:50:35;5.53;;;3.50;;
16354;SDS011;8287;51.644;8.494;2022-08-01T02:53:05;4.45;;;3.70;;
16354;SDS011;8287;51.644;8.494;2022-08-01T02:55:35;7.07;;;4.15;;
16354;SDS011;8287;51.644;8.494;2022-08-01T02:58:04;4.50;;;3.70;;
16354;SDS011;8287;51.644;8.494;2022-08-01T03:00:33;5.30;;;3.65;;
16354;SDS011;8287;51.644;8.494;2022-08-01T03:03:02;7.07;;;3.83;;
16354;SDS011;8287;51.644;8.494;2022-08-01T03:05:31;5.40;;;3.42;;
16354;SDS011;8287;51.644;8.494;2022-08-01T03:07:58;5.72;;;3.47;;
16354;SDS011;8287;51.644;8.494;2022-08-01T03:10:28;5.32;;;4.03;;
16354;SDS011;8287;51.644;8.494;2022-08-01T03:12:57;5.32;;;3.03;;
16354;SDS011;8287;51.644;8.494;2022-08-01T03:15:26;5.30;;;3.75;;
16354;SDS011;8287;51.644;8.494;2022-08-01T03:17:57;4.63;;;3.60;;
16354;SDS011;8287;51.644;8.494;2022-08-01T03:20:26;5.07;;;3.97;;
16354;SDS011;8287;51.644;8.494;2022-08-01T03:22:54;7.05;;;3.85;;
16354;SDS011;8287;51.644;8.494;2022-08-01T03:25:23;4.82;;;3.88;;
16354;SDS011;8287;51.644;8.494;2022-08-01T03:27:54;6.50;;;3.58;;
16354;SDS011;8287;51.644;8.494;2022-08-01T03:30:22;5.43;;;4.18;;
16354;SDS011;8287;51.644;8.494;2022-08-01T03:32:51;5.50;;;4.15;;
16354;SDS011;8287;51.644;8.494;2022-08-01T03:35:18;8.02;;;4.10;;
16354;SDS011;8287;51.644;8.494;2022-08-01T03:37:46;4.95;;;4.25;;
16354;SDS011;8287;51.644;8.494;2022-08-01T03:40:17;5.97;;;3.38;;
16354;SDS011;8287;51.644;8.494;2022-08-01T03:42:48;5.65;;;4.22;;
16354;SDS011;8287;51.644;8.494;2022-08-01T03:45:22;8.73;;;4.55;;
16354;SDS011;8287;51.644;8.494;2022-08-01T03:47:54;4.00;;;3.25;;
16354;SDS011;8287;51.644;8.494;2022-08-01T03:50:24;8.00;;;4.22;;
16354;SDS011;8287;51.644;8.494;2022-08-01T03:52:53;5.53;;;3.83;;
16354;SDS011;8287;51.644;8.494;2022-08-01T03:55:20;6.65;;;4.30;;
16354;SDS011;8287;51.644;8.494;2022-08-01T03:57:48;6.82;;;3.92;;
16354;SDS011;8287;51.644;8.494;2022-08-01T04:00:17;10.23;;;3.72;;
16354;SDS011;8287;51.644;8.494;2022-08-01T04:02:45;3.45;;;2.85;;
16354;SDS011;8287;51.644;8.494;2022-08-01T04:05:13;8.68;;;4.45;;
16354;SDS011;8287;51.644;8.494;2022-08-01T04:07:40;4.65;;;3.08;;
16354;SDS011;8287;51.644;8.494;2022-08-01T04:10:12;4.95;;;3.65;;
16354;SDS011;8287;51.644;8.494;2022-08-01T04:12:39;4.30;;;3.08;;
16354;SDS011;8287;51.644;8.494;2022-08-01T04:15:06;7.68;;;3.53;;
16354;SDS011;8287;51.644;8.494;2022-08-01T04:17:33;5.68;;;3.45;;
16354;SDS011;8287;51.644;8.494;2022-08-01T04:20:01;4.40;;;4.00;;
16354;SDS011;8287;51.644;8.494;2022-08-01T04:22:28;4.22;;;3.33;;
16354;SDS011;8287;51.644;8.494;2022-08-01T04:24:55;6.88;;;2.97;;
16354;SDS011;8287;51.644;8.494;2022-08-01T04:27:25;5.97;;;3.08;;
16354;SDS011;8287;51.644;8.494;2022-08-01T04:29:55;4.13;;;3.33;;
16354;SDS011;8287;51.644;8.494;2022-08-01T04:32:24;4.43;;;3.33;;
16354;SDS011;8287;51.644;8.494;2022-08-01T04:34:53;5.35;;;3.85;;
16354;SDS011;8287;51.644;8.494;2022-08-01T04:37:24;6.10;;;4.25;;
16354;SDS011;8287;51.644;8.494;2022-08-01T04:39:52;5.90;;;3.22;;
16354;SDS011;8287;51.644;8.494;2022-08-01T04:42:20;6.22;;;3.92;;
16354;SDS011;8287;51.644;8.494;2022-08-01T04:44:47;5.25;;;4.05;;
16354;SDS011;8287;51.644;8.494;2022-08-01T04:47:14;7.05;;;4.07;;
16354;SDS011;8287;51.644;8.494;2022-08-01T04:49:41;7.15;;;4.25;;
16354;SDS011;8287;51.644;8.494;2022-08-01T04:52:11;9.65;;;4.43;;
16354;SDS011;8287;51.644;8.494;2022-08-01T04:54:39;6.15;;;3.40;;
16354;SDS011;8287;51.644;8.494;2022-08-01T04:57:06;4.82;;;3.78;;
16354;SDS011;8287;51.644;8.494;2022-08-01T04:59:34;7.22;;;3.40;;
16354;SDS011;8287;51.644;8.494;2022-08-01T05:02:07;10.32;;;4.18;;
16354;SDS011;8287;51.644;8.494;2022-08-01T05:04:36;5.88;;;3.85;;
16354;SDS011;8287;51.644;8.494;2022-08-01T05:07:03;6.85;;;4.28;;
16354;SDS011;8287;51.644;8.494;2022-08-01T05:09:30;7.50;;;4.55;;
16354;SDS011;8287;51.644;8.494;2022-08-01T05:11:58;11.82;;;4.82;;
16354;SDS011;8287;51.644;8.494;2022-08-01T05:14:27;8.52;;;4.93;;
16354;SDS011;8287;51.644;8.494;2022-08-01T05:16:56;7.53;;;5.50;;
16354;SDS011;8287;51.644;8.494;2022-08-01T05:19:23;6.82;;;5.55;;
16354;SDS011;8287;51.644;8.494;2022-08-01T05:21:50;5.20;;;3.70;;
16354;SDS011;8287;51.644;8.494;2022-08-01T05:24:17;7.75;;;4.75;;
16354;SDS011;8287;51.644;8.494;2022-08-01T05:26:43;5.40;;;3.60;;
16354;SDS011;8287;51.644;8.494;2022-08-01T05:29:11;7.68;;;4.95;;
16354;SDS011;8287;51.644;8.494;2022-08-01T05:31:38;6.60;;;4.80;;
16354;SDS011;8287;51.644;8.494;2022-08-01T05:34:04;7.25;;;5.15;;
16354;SDS011;8287;51.644;8.494;2022-08-01T05:36:31;8.27;;;4.82;;
16354;SDS011;8287;51.644;8.494;2022-08-01T05:38:58;6.38;;;5.00;;
16354;SDS011;8287;51.644;8.494;2022-08-01T05:41:25;9.88;;;4.78;;
16354;SDS011;8287;51.644;8.494;2022-08-01T05:43:51;7.28;;;5.20;;
16354;SDS011;8287;51.644;8.494;2022-08-01T05:46:19;7.47;;;5.05;;
16354;SDS011;8287;51.644;8.494;2022-08-01T05:48:46;5.57;;;4.07;;
16354;SDS011;8287;51.644;8.494;2022-08-01T05:51:12;5.15;;;4.13;;
16354;SDS011;8287;51.644;8.494;2022-08-01T05:53:39;5.00;;;3.45;;
16354;SDS011;8287;51.644;8.494;2022-08-01T05:56:06;5.68;;;4.20;;
16354;SDS011;8287;51.644;8.494;2022-08-01T05:58:33;7.13;;;4.53;;
16354;SDS011;8287;51.644;8.494;2022-08-01T06:00:59;5.97;;;4.25;;
16354;SDS011;8287;51.644;8.494;2022-08-01T06:03:27;7.13;;;4.90;;
16354;SDS011;8287;51.644;8.494;2022-08-01T06:05:56;5.57;;;4.13;;
16354;SDS011;8287;51.644;8.494;2022-08-01T06:08:23;5.15;;;3.55;;
16354;SDS011;8287;51.644;8.494;2022-08-01T06:10:49;4.93;;;4.13;;
16354;SDS011;8287;51.644;8.494;2022-08-01T06:13:16;5.20;;;3.97;;
16354;SDS011;8287;51.644;8.494;2022-08-01T06:15:44;4.00;;;2.88;;
16354;SDS011;8287;51.644;8.494;2022-08-01T06:18:11;4.75;;;3.75;;
16354;SDS011;8287;51.644;8.494;2022-08-01T06:20:39;7.05;;;3.92;;
16354;SDS011;8287;51.644;8.494;2022-08-01T06:23:06;5.00;;;4.03;;
16354;SDS011;8287;51.644;8.494;2022-08-01T06:25:34;7.28;;;5.47;;
16354;SDS011;8287;51.644;8.494;2022-08-01T06:28:00;4.95;;;3.70;;
16354;SDS011;8287;51.644;8.494;2022-08-01T06:30:28;6.22;;;4.78;;
16354;SDS011;8287;51.644;8.494;2022-08-01T06:32:54;4.95;;;3.92;;
16354;SDS011;8287;51.644;8.494;2022-08-01T06:35:23;8.48;;;4.68;;
16354;SDS011;8287;51.644;8.494;2022-08-01T06:37:52;6.40;;;4.43;;
16354;SDS011;8287;51.644;8.494;2022-08-01T06:40:18;3.90;;;3.42;;
16354;SDS011;8287;51.644;8.494;2022-08-01T06:42:45;8.70;;;4.40;;
16354;SDS011;8287;51.644;8.494;2022-08-01T06:45:12;5.32;;;3.75;;
16354;SDS011;8287;51.644;8.494;2022-08-01T06:47:39;4.40;;;3.17;;
16354;SDS011;8287;51.644;8.494;2022-08-01T06:50:10;3.95;;;2.97;;
16354;SDS011;8287;51.644;8.494;2022-08-01T06:52:39;5.18;;;3.13;;
16354;SDS011;8287;51.644;8.494;2022-08-01T06:55:09;6.68;;;2.75;;
16354;SDS011;8287;51.644;8.494;2022-08-01T06:57:44;7.90;;;3.13;;
16354;SDS011;8287;51.644;8.494;2022-08-01T07:00:12;2.78;;;2.22;;
16354;SDS011;8287;51.644;8.494;2022-08-01T07:02:41;4.43;;;3.08;;
16354;SDS011;8287;51.644;8.494;2022-08-01T07:05:08;4.18;;;2.88;;
16354;SDS011;8287;51.644;8.494;2022-08-01T07:07:35;5.00;;;3.20;;
16354;SDS011;8287;51.644;8.494;2022-08-01T07:10:02;4.82;;;3.17;;
16354;SDS011;8287;51.644;8.494;2022-08-01T07:12:31;5.28;;;3.08;;
16354;SDS011;8287;51.644;8.494;2022-08-01T07:14:58;4.88;;;2.97;;
16354;SDS011;8287;51.644;8.494;2022-08-01T07:17:25;4.50;;;2.83;;
16354;SDS011;8287;51.644;8.494;2022-08-01T07:19:51;3.42;;;3.00;;
16354;SDS011;8287;51.644;8.494;2022-08-01T07:22:19;4.97;;;3.17;;
16354;SDS011;8287;51.644;8.494;2022-08-01T07:24:46;4.43;;;3.10;;
16354;SDS011;8287;51.644;8.494;2022-08-01T07:27:13;7.95;;;4.20;;
16354;SDS011;8287;51.644;8.494;2022-08-01T07:29:41;4.13;;;2.78;;
16354;SDS011;8287;51.644;8.494;2022-08-01T07:32:08;5.82;;;2.72;;
16354;SDS011;8287;51.644;8.494;2022-08-01T07:34:34;3.42;;;2.97;;
16354;SDS011;8287;51.644;8.494;2022-08-01T07:37:01;3.42;;;2.65;;
16354;SDS011;8287;51.644;8.494;2022-08-01T07:39:28;4.70;;;2.80;;
16354;SDS011;8287;51.644;8.494;2022-08-01T07:41:54;3.75;;;2.47;;
16354;SDS011;8287;51.644;8.494;2022-08-01T07:44:21;3.20;;;2.05;;
16354;SDS011;8287;51.644;8.494;2022-08-01T07:46:49;4.93;;;2.80;;
16354;SDS011;8287;51.644;8.494;2022-08-01T07:49:15;2.55;;;2.30;;
16354;SDS011;8287;51.644;8.494;2022-08-01T07:51:42;1.95;;;1.65;;
16354;SDS011;8287;51.644;8.494;2022-08-01T07:54:09;5.05;;;2.33;;
16354;SDS011;8287;51.644;8.494;2022-08-01T07:56:35;2.78;;;1.85;;
16354;SDS011;8287;51.644;8.494;2022-08-01T07:59:02;2.60;;;1.88;;
16354;SDS011;8287;51.644;8.494;2022-08-01T08:01:29;2.67;;;1.98;;
16354;SDS011;8287;51.644;8.494;2022-08-01T08:03:57;1.50;;;1.35;;
16354;SDS011;8287;51.644;8.494;2022-08-01T08:06:23;3.08;;;2.05;;
16354;SDS011;8287;51.644;8.494;2022-08-01T08:08:51;1.67;;;1.58;;
16354;SDS011;8287;51.644;8.494;2022-08-01T08:11:18;3.13;;;2.70;;
16354;SDS011;8287;51.644;8.494;2022-08-01T08:13:45;1.95;;;1.85;;
16354;SDS011;8287;51.644;8.494;2022-08-01T08:16:11;1.92;;;1.73;;
16354;SDS011;8287;51.644;8.494;2022-08-01T08:18:38;2.92;;;2.17;;
16354;SDS011;8287;51.644;8.494;2022-08-01T08:21:06;1.98;;;1.30;;
16354;SDS011;8287;51.644;8.494;2022-08-01T08:23:33;2.45;;;2.13;;
16354;SDS011;8287;51.644;8.494;2022-08-01T08:26:25;5.57;;;1.50;;
16354;SDS011;8287;51.644;8.494;2022-08-01T08:28:52;2.38;;;1.63;;
16354;SDS011;8287;51.644;8.494;2022-08-01T08:31:19;1.58;;;1.40;;
16354;SDS011;8287;51.644;8.494;2022-08-01T08:33:45;1.73;;;1.20;;
16354;SDS011;8287;51.644;8.494;2022-08-01T08:36:14;2.55;;;1.77;;
16354;SDS011;8287;51.644;8.494;2022-08-01T08:38:41;1.67;;;1.58;;
16354;SDS011;8287;51.644;8.494;2022-08-01T08:41:08;1.98;;;1.23;;
16354;SDS011;8287;51.644;8.494;2022-08-01T08:43:35;1.95;;;1.65;;
16354;SDS011;8287;51.644;8.494;2022-08-01T08:46:02;2.83;;;1.90;;
16354;SDS011;8287;51.644;8.494;2022-08-01T08:48:31;2.03;;;1.80;;
16354;SDS011;8287;51.644;8.494;2022-08-01T08:50:58;1.70;;;1.60;;
16354;SDS011;8287;51.644;8.494;2022-08-01T08:53:28;1.90;;;1.73;;
16354;SDS011;8287;51.644;8.494;2022-08-01T08:55:57;4.50;;;1.98;;
16354;SDS011;8287;51.644;8.494;2022-08-01T08:58:34;1.48;;;1.38;;
16354;SDS011;8287;51.644;8.494;2022-08-01T09:08:37;1.77;;;1.48;;
16354;SDS011;8287;51.644;8.494;2022-08-01T09:11:33;1.88;;;1.55;;
16354;SDS011;8287;51.644;8.494;2022-08-01T09:14:53;1.90;;;1.35;;
16354;SDS011;8287;51.644;8.494;2022-08-01T09:17:56;1.00;;;0.98;;
16354;SDS011;8287;51.644;8.494;2022-08-01T09:20:31;0.82;;;0.82;;
16354;SDS011;8287;51.644;8.494;2022-08-01T09:23:16;2.10;;;1.25;;
16354;SDS011;8287;51.644;8.494;2022-08-01T09:27:22;7.15;;;1.65;;
16354;SDS011;8287;51.644;8.494;2022-08-01T09:30:48;2.92;;;1.63;;
16354;SDS011;8287;51.644;8.494;2022-08-01T09:34:24;1.42;;;1.20;;
16354;SDS011;8287;51.644;8.494;2022-08-01T09:37:11;1.45;;;1.05;;
16354;SDS011;8287;51.644;8.494;2022-08-01T09:40:33;1.20;;;1.10;;
16354;SDS011;8287;51.644;8.494;2022-08-01T09:46:08;3.60;;;1.23;;
16354;SDS011;8287;51.644;8.494;2022-08-01T09:48:48;1.65;;;0.73;;
16354;SDS011;8287;51.644;8.494;2022-08-01T09:51:27;0.52;;;0.40;;
16354;SDS011;8287;51.644;8.494;2022-08-01T09:53:54;1.23;;;0.82;;
16354;SDS011;8287;51.644;8.494;2022-08-01T09:56:21;0.30;;;0.28;;
16354;SDS011;8287;51.644;8.494;2022-08-01T09:58:51;0.60;;;0.60;;
16354;SDS011;8287;51.644;8.494;2022-08-01T10:01:20;0.63;;;0.45;;
16354;SDS011;8287;51.644;8.494;2022-08-01T10:03:47;0.38;;;0.38;;
16354;SDS011;8287;51.644;8.494;2022-08-01T10:06:30;0.52;;;0.40;;
16354;SDS011;8287;51.644;8.494;2022-08-01T10:08:57;0.88;;;0.55;;
16354;SDS011;8287;51.644;8.494;2022-08-01T10:11:23;0.30;;;0.30;;
16354;SDS011;8287;51.644;8.494;2022-08-01T10:14:00;0.45;;;0.45;;
16354;SDS011;8287;51.644;8.494;2022-08-01T10:23:03;1.85;;;0.55;;
16354;SDS011;8287;51.644;8.494;2022-08-01T10:25:33;0.68;;;0.20;;
16354;SDS011;8287;51.644;8.494;2022-08-01T10:28:02;0.60;;;0.50;;
16354;SDS011;8287;51.644;8.494;2022-08-01T10:30:37;0.20;;;0.20;;
16354;SDS011;8287;51.644;8.494;2022-08-01T10:33:04;1.13;;;0.63;;
16354;SDS011;8287;51.644;8.494;2022-08-01T10:35:31;0.38;;;0.38;;
16354;SDS011;8287;51.644;8.494;2022-08-01T10:37:58;0.45;;;0.40;;
16354;SDS011;8287;51.644;8.494;2022-08-01T10:40:26;0.57;;;0.52;;
16354;SDS011;8287;51.644;8.494;2022-08-01T10:42:53;0.60;;;0.30;;
16354;SDS011;8287;51.644;8.494;2022-08-01T10:45:20;0.40;;;0.40;;
16354;SDS011;8287;51.644;8.494;2022-08-01T10:47:48;0.35;;;0.35;;
16354;SDS011;8287;51.644;8.494;2022-08-01T10:50:21;0.30;;;0.30;;
16354;SDS011;8287;51.644;8.494;2022-08-01T10:53:13;0.10;;;0.10;;
16354;SDS011;8287;51.644;8.494;2022-08-01T10:55:49;1.52;;;1.40;;
16354;SDS011;8287;51.644;8.494;2022-08-01T10:58:21;2.03;;;1.83;;
16354;SDS011;8287;51.644;8.494;2022-08-01T11:01:13;1.40;;;1.30;;
16354;SDS011;8287;51.644;8.494;2022-08-01T11:03:41;0.85;;;0.85;;
16354;SDS011;8287;51.644;8.494;2022-08-01T11:06:14;0.90;;;0.90;;
16354;SDS011;8287;51.644;8.494;2022-08-01T11:08:42;1.67;;;0.82;;
16354;SDS011;8287;51.644;8.494;2022-08-01T11:11:19;1.92;;;1.73;;
16354;SDS011;8287;51.644;8.494;2022-08-01T11:14:03;1.33;;;1.23;;
16354;SDS011;8287;51.644;8.494;2022-08-01T11:16:35;1.73;;;1.30;;
16354;SDS011;8287;51.644;8.494;2022-08-01T11:19:03;2.45;;;1.25;;
16354;SDS011;8287;51.644;8.494;2022-08-01T11:27:30;2.13;;;1.23;;
16354;SDS011;8287;51.644;8.494;2022-08-01T11:32:51;1.35;;;1.25;;
16354;SDS011;8287;51.644;8.494;2022-08-01T11:35:19;1.52;;;1.42;;
16354;SDS011;8287;51.644;8.494;2022-08-01T11:37:48;1.20;;;1.10;;
16354;SDS011;8287;51.644;8.494;2022-08-01T11:40:19;2.28;;;1.55;;
16354;SDS011;8287;51.644;8.494;2022-08-01T11:42:50;1.15;;;1.05;;
16354;SDS011;8287;51.644;8.494;2022-08-01T11:45:46;2.15;;;1.33;;
16354;SDS011;8287;51.644;8.494;2022-08-01T11:48:17;2.38;;;1.30;;
16354;SDS011;8287;51.644;8.494;2022-08-01T11:50:44;2.08;;;1.30;;
16354;SDS011;8287;51.644;8.494;2022-08-01T11:53:11;1.17;;;1.08;;
16354;SDS011;8287;51.644;8.494;2022-08-01T11:55:43;0.82;;;0.82;;
16354;SDS011;8287;51.644;8.494;2022-08-01T11:58:12;2.03;;;0.90;;
16354;SDS011;8287;51.644;8.494;2022-08-01T12:00:39;0.65;;;0.65;;
16354;SDS011;8287;51.644;8.494;2022-08-01T12:03:07;0.93;;;0.73;;
16354;SDS011;8287;51.644;8.494;2022-08-01T12:05:35;0.65;;;0.65;;
16354;SDS011;8287;51.644;8.494;2022-08-01T12:08:03;0.80;;;0.80;;
16354;SDS011;8287;51.644;8.494;2022-08-01T12:10:30;0.75;;;0.60;;
16354;SDS011;8287;51.644;8.494;2022-08-01T12:13:02;0.90;;;0.90;;
16354;SDS011;8287;51.644;8.494;2022-08-01T12:15:33;0.65;;;0.63;;
16354;SDS011;8287;51.644;8.494;2022-08-01T12:18:02;0.60;;;0.60;;
16354;SDS011;8287;51.644;8.494;2022-08-01T12:20:31;0.93;;;0.70;;
16354;SDS011;8287;51.644;8.494;2022-08-01T12:22:59;2.47;;;1.30;;
16354;SDS011;8287;51.644;8.494;2022-08-01T12:25:27;1.15;;;1.05;;
16354;SDS011;8287;51.644;8.494;2022-08-01T12:27:54;0.82;;;0.82;;
16354;SDS011;8287;51.644;8.494;2022-08-01T12:30:26;0.63;;;0.60;;
16354;SDS011;8287;51.644;8.494;2022-08-01T12:32:54;0.55;;;0.50;;
16354;SDS011;8287;51.644;8.494;2022-08-01T12:35:22;3.95;;;1.00;;
16354;SDS011;8287;51.644;8.494;2022-08-01T12:37:51;0.63;;;0.63;;
16354;SDS011;8287;51.644;8.494;2022-08-01T12:40:19;0.85;;;0.70;;
16354;SDS011;8287;51.644;8.494;2022-08-01T12:42:51;0.75;;;0.40;;
16354;SDS011;8287;51.644;8.494;2022-08-01T12:45:20;0.30;;;0.30;;
16354;SDS011;8287;51.644;8.494;2022-08-01T12:47:50;0.50;;;0.50;;
16354;SDS011;8287;51.644;8.494;2022-08-01T12:50:20;0.43;;;0.43;;
16354;SDS011;8287;51.644;8.494;2022-08-01T12:52:48;0.43;;;0.43;;
16354;SDS011;8287;51.644;8.494;2022-08-01T12:55:15;0.70;;;0.70;;
16354;SDS011;8287;51.644;8.494;2022-08-01T12:57:44;1.05;;;0.55;;
16354;SDS011;8287;51.644;8.494;2022-08-01T13:00:16;0.40;;;0.40;;
16354;SDS011;8287;51.644;8.494;2022-08-01T13:02:45;1.23;;;0.90;;
16354;SDS011;8287;51.644;8.494;2022-08-01T13:05:13;0.77;;;0.77;;
16354;SDS011;8287;51.644;8.494;2022-08-01T13:07:46;0.70;;;0.70;;
16354;SDS011;8287;51.644;8.494;2022-08-01T13:10:15;1.00;;;1.00;;
16354;SDS011;8287;51.644;8.494;2022-08-01T13:12:52;1.75;;;0.40;;
16354;SDS011;8287;51.644;8.494;2022-08-01T13:15:24;0.68;;;0.68;;
16354;SDS011;8287;51.644;8.494;2022-08-01T13:17:53;1.17;;;0.82;;
16354;SDS011;8287;51.644;8.494;2022-08-01T13:20:28;1.10;;;1.08;;
16354;SDS011;8287;51.644;8.494;2022-08-01T13:23:11;1.02;;;0.95;;
16354;SDS011;8287;51.644;8.494;2022-08-01T13:25:48;0.80;;;0.70;;
16354;SDS011;8287;51.644;8.494;2022-08-01T13:28:16;0.75;;;0.75;;
16354;SDS011;8287;51.644;8.494;2022-08-01T13:30:50;0.80;;;0.80;;
16354;SDS011;8287;51.644;8.494;2022-08-01T13:33:18;0.85;;;0.80;;
16354;SDS011;8287;51.644;8.494;2022-08-01T13:35:45;0.60;;;0.60;;
16354;SDS011;8287;51.644;8.494;2022-08-01T13:38:14;0.90;;;0.80;;
16354;SDS011;8287;51.644;8.494;2022-08-01T13:40:40;0.80;;;0.77;;
16354;SDS011;8287;51.644;8.494;2022-08-01T13:43:07;1.33;;;0.98;;
16354;SDS011;8287;51.644;8.494;2022-08-01T13:45:34;1.02;;;1.02;;
16354;SDS011;8287;51.644;8.494;2022-08-01T13:48:01;3.03;;;0.70;;
16354;SDS011;8287;51.644;8.494;2022-08-01T13:50:27;1.10;;;0.70;;
16354;SDS011;8287;51.644;8.494;2022-08-01T13:52:54;0.98;;;0.98;;
16354;SDS011;8287;51.644;8.494;2022-08-01T13:55:22;0.70;;;0.70;;
16354;SDS011;8287;51.644;8.494;2022-08-01T13:57:49;1.38;;;1.08;;
16354;SDS011;8287;51.644;8.494;2022-08-01T14:00:16;0.60;;;0.60;;
16354;SDS011;8287;51.644;8.494;2022-08-01T14:02:44;1.27;;;0.63;;
16354;SDS011;8287;51.644;8.494;2022-08-01T14:05:11;1.10;;;1.00;;
16354;SDS011;8287;51.644;8.494;2022-08-01T14:07:38;0.88;;;0.88;;
16354;SDS011;8287;51.644;8.494;2022-08-01T14:10:04;0.80;;;0.80;;
16354;SDS011;8287;51.644;8.494;2022-08-01T14:12:33;1.73;;;0.80;;
16354;SDS011;8287;51.644;8.494;2022-08-01T14:14:59;0.77;;;0.77;;
16354;SDS011;8287;51.644;8.494;2022-08-01T14:17:29;0.52;;;0.50;;
16354;SDS011;8287;51.644;8.494;2022-08-01T14:19:56;0.73;;;0.73;;
16354;SDS011;8287;51.644;8.494;2022-08-01T14:22:24;0.70;;;0.70;;
16354;SDS011;8287;51.644;8.494;2022-08-01T14:24:51;0.90;;;0.80;;
16354;SDS011;8287;51.644;8.494;2022-08-01T14:27:17;0.52;;;0.52;;
16354;SDS011;8287;51.644;8.494;2022-08-01T14:29:45;0.43;;;0.43;;
16354;SDS011;8287;51.644;8.494;2022-08-01T14:32:12;1.10;;;0.50;;
16354;SDS011;8287;51.644;8.494;2022-08-01T14:34:38;0.82;;;0.52;;
16354;SDS011;8287;51.644;8.494;2022-08-01T14:37:05;0.93;;;0.38;;
16354;SDS011;8287;51.644;8.494;2022-08-01T14:39:32;0.32;;;0.32;;
16354;SDS011;8287;51.644;8.494;2022-08-01T14:41:58;1.40;;;0.40;;
16354;SDS011;8287;51.644;8.494;2022-08-01T14:44:25;1.05;;;0.57;;
16354;SDS011;8287;51.644;8.494;2022-08-01T14:46:53;0.73;;;0.52;;
16354;SDS011;8287;51.644;8.494;2022-08-01T14:49:20;0.47;;;0.38;;
16354;SDS011;8287;51.644;8.494;2022-08-01T14:51:46;0.30;;;0.30;;
16354;SDS011;8287;51.644;8.494;2022-08-01T14:54:13;0.45;;;0.38;;
16354;SDS011;8287;51.644;8.494;2022-08-01T14:56:40;0.40;;;0.40;;
16354;SDS011;8287;51.644;8.494;2022-08-01T14:59:06;0.30;;;0.30;;
16354;SDS011;8287;51.644;8.494;2022-08-01T15:01:33;0.55;;;0.30;;
16354;SDS011;8287;51.644;8.494;2022-08-01T15:04:01;0.47;;;0.32;;
16354;SDS011;8287;51.644;8.494;2022-08-01T15:06:28;3.10;;;0.40;;
16354;SDS011;8287;51.644;8.494;2022-08-01T15:08:54;0.40;;;0.40;;
16354;SDS011;8287;51.644;8.494;2022-08-01T15:11:21;0.35;;;0.30;;
16354;SDS011;8287;51.644;8.494;2022-08-01T15:13:48;0.30;;;0.30;;
16354;SDS011;8287;51.644;8.494;2022-08-01T15:16:35;0.60;;;0.60;;
16354;SDS011;8287;51.644;8.494;2022-08-01T15:19:03;0.60;;;0.60;;
16354;SDS011;8287;51.644;8.494;2022-08-01T15:21:30;1.20;;;0.40;;
16354;SDS011;8287;51.644;8.494;2022-08-01T15:23:57;0.20;;;0.20;;
16354;SDS011;8287;51.644;8.494;2022-08-01T15:26:23;0.40;;;0.40;;
16354;SDS011;8287;51.644;8.494;2022-08-01T15:28:50;1.35;;;0.30;;
16354;SDS011;8287;51.644;8.494;2022-08-01T15:31:17;0.50;;;0.50;;
16354;SDS011;8287;51.644;8.494;2022-08-01T15:33:43;1.17;;;0.88;;
16354;SDS011;8287;51.644;8.494;2022-08-01T15:36:11;1.58;;;0.63;;
16354;SDS011;8287;51.644;8.494;2022-08-01T15:38:38;1.08;;;0.60;;
16354;SDS011;8287;51.644;8.494;2022-08-01T15:41:05;0.50;;;0.50;;
16354;SDS011;8287;51.644;8.494;2022-08-01T15:43:31;0.52;;;0.52;;